Time;durP1;ratioP1;P1;durP2;ratioP2;P2;SDS_P1;SDS_P2;PMS_P1;PMS_P2;Temp;Humidity;BMP_temperature;BMP_pressure;BME280_temperature;BME280_humidity;BME280_pressure;Samples;Min_cycle;Max_cycle;Signal;HPM_P1;HPM_P2
2024/01/05 00:04:26;;;;;;;3.00;1.70;;;;;;;5.14;61.96;98014.77;232306;204;136641;-49
2024/01/05 00:09:30;;;;;;;3.40;1.60;;;;;;;5.11;62.21;98019.81;232382;204;137853;-50
2024/01/05 00:14:36;;;;;;;3.60;1.70;;;;;;;5.12;62.41;98028.58;232260;204;151457;-48
2024/01/05 00:19:40;;;;;;;4.20;1.70;;;;;;;5.06;62.45;98033.65;232377;201;136434;-51
2024/01/05 00:24:44;;;;;;;3.30;1.50;;;;;;;5.06;62.64;98046.88;232393;204;138899;-48
2024/01/05 00:29:47;;;;;;;2.30;1.60;;;;;;;5.10;62.50;98055.06;232423;203;152123;-48
2024/01/05 00:34:50;;;;;;;2.80;1.30;;;;;;;5.07;62.25;98058.54;232477;204;140199;-49
2024/01/05 00:39:53;;;;;;;2.30;1.40;;;;;;;4.99;61.73;98069.18;232384;204;137649;-50
2024/01/05 00:44:57;;;;;;;1.90;1.30;;;;;;;4.95;61.28;98081.01;232405;203;151968;-48
2024/01/05 00:50:00;;;;;;;1.80;1.00;;;;;;;4.89;61.26;98084.15;232313;200;140059;-48
2024/01/05 00:55:03;;;;;;;2.10;1.30;;;;;;;4.94;61.31;98085.14;232563;200;137227;-48
2024/01/05 01:00:09;;;;;;;1.80;1.20;;;;;;;4.97;61.32;98087.78;232324;200;151539;-49
2024/01/05 01:05:12;;;;;;;2.90;1.20;;;;;;;4.92;61.32;98090.69;232382;204;138352;-54
2024/01/05 01:10:16;;;;;;;2.40;1.30;;;;;;;4.91;61.66;98087.96;232483;200;136455;-54
2024/01/05 01:15:20;;;;;;;2.00;1.30;;;;;;;4.94;61.69;98089.32;232425;201;151689;-52
2024/01/05 01:20:23;;;;;;;2.90;1.70;;;;;;;4.97;61.59;98100.75;232453;200;136969;-50
2024/01/05 01:25:26;;;;;;;2.60;1.40;;;;;;;5.01;61.63;98108.11;232461;203;136863;-52
2024/01/05 01:30:29;;;;;;;2.90;1.50;;;;;;;5.02;61.68;98112.81;232412;203;151424;-50
2024/01/05 01:35:32;;;;;;;2.70;1.60;;;;;;;5.03;61.70;98112.05;232300;204;136514;-52
2024/01/05 01:40:35;;;;;;;3.30;1.70;;;;;;;5.06;61.56;98117.85;232447;204;136606;-51
2024/01/05 01:45:39;;;;;;;2.20;1.60;;;;;;;5.09;61.71;98122.64;232312;199;152774;-50
2024/01/05 01:50:42;;;;;;;2.80;1.80;;;;;;;5.11;61.44;98128.87;231992;204;136855;-52
2024/01/05 01:55:48;;;;;;;2.10;1.40;;;;;;;5.08;61.50;98141.13;232522;204;136606;-50
2024/01/05 02:00:52;;;;;;;2.10;1.50;;;;;;;5.06;61.37;98150.60;232328;204;151955;-50
2024/01/05 02:05:56;;;;;;;3.30;1.80;;;;;;;5.04;61.48;98160.90;232398;204;138632;-53
2024/01/05 02:10:59;;;;;;;2.10;1.40;;;;;;;5.00;61.18;98172.69;232301;197;136964;-53
2024/01/05 02:16:03;;;;;;;2.60;1.40;;;;;;;4.90;60.71;98177.77;232429;203;151095;-50
2024/01/05 02:21:08;;;;;;;2.00;1.30;;;;;;;4.74;60.54;98181.77;232357;203;136941;-49
2024/01/05 02:26:12;;;;;;;6.30;1.30;;;;;;;4.75;60.86;98185.23;232212;197;140455;-50
2024/01/05 02:31:15;;;;;;;2.80;1.40;;;;;;;4.75;60.72;98182.29;232493;204;152212;-52
2024/01/05 02:36:19;;;;;;;2.30;1.40;;;;;;;4.70;60.72;98182.55;232450;204;137387;-53
2024/01/05 02:41:22;;;;;;;1.70;1.40;;;;;;;4.69;60.85;98184.86;232320;203;136677;-51
2024/01/05 02:46:25;;;;;;;3.20;1.10;;;;;;;4.72;60.93;98177.33;232430;204;152596;-52
2024/01/05 02:51:28;;;;;;;2.40;1.20;;;;;;;4.66;60.91;98174.14;232441;204;139106;-48
2024/01/05 02:56:33;;;;;;;2.80;1.50;;;;;;;4.63;60.90;98163.08;232007;196;136838;-47
2024/01/05 03:01:37;;;;;;;2.70;1.70;;;;;;;4.64;61.11;98153.87;232605;201;151516;-51
2024/01/05 03:06:40;;;;;;;3.00;1.80;;;;;;;4.70;61.07;98169.35;232508;197;137338;-49
2024/01/05 03:11:43;;;;;;;2.60;1.50;;;;;;;4.66;60.87;98189.91;232391;203;137366;-49
2024/01/05 03:16:47;;;;;;;3.00;1.60;;;;;;;4.67;61.36;98194.30;232481;204;151491;-49
2024/01/05 03:21:50;;;;;;;2.70;1.60;;;;;;;4.72;61.43;98199.26;232375;204;137961;-49
2024/01/05 03:26:53;;;;;;;3.60;1.60;;;;;;;4.77;61.48;98208.68;232395;204;138512;-50
2024/01/05 03:31:56;;;;;;;3.30;2.00;;;;;;;4.85;61.50;98207.59;232379;196;151887;-53
2024/01/05 03:36:59;;;;;;;3.60;2.10;;;;;;;4.91;61.31;98208.84;232473;201;136755;-54
2024/01/05 03:42:03;;;;;;;3.70;2.30;;;;;;;4.94;61.15;98217.10;232409;204;137594;-52
2024/01/05 03:47:07;;;;;;;2.80;2.50;;;;;;;4.89;60.97;98231.44;232343;204;152643;-52
2024/01/05 03:52:10;;;;;;;4.90;2.90;;;;;;;4.91;61.05;98231.70;232263;204;136854;-53
2024/01/05 03:57:13;;;;;;;4.80;3.10;;;;;;;4.88;61.07;98230.41;231958;204;136870;-53
2024/01/05 04:02:16;;;;;;;3.20;2.60;;;;;;;4.93;61.08;98227.69;232439;196;152345;-54
2024/01/05 04:07:19;;;;;;;3.90;2.70;;;;;;;4.95;61.14;98227.79;232324;202;137023;-53
2024/01/05 04:12:22;;;;;;;4.10;2.70;;;;;;;4.93;61.40;98232.98;232307;204;137911;-53
2024/01/05 04:17:26;;;;;;;6.40;2.60;;;;;;;4.89;61.55;98235.48;232330;204;151321;-53
2024/01/05 04:22:31;;;;;;;3.70;2.60;;;;;;;4.93;61.85;98235.98;232328;204;137242;-53
2024/01/05 04:27:34;;;;;;;3.60;2.60;;;;;;;4.90;61.89;98229.64;232187;197;136657;-53
2024/01/05 04:32:37;;;;;;;4.40;2.60;;;;;;;4.92;61.86;98234.63;232437;201;152083;-47
2024/01/05 04:37:41;;;;;;;4.10;2.90;;;;;;;4.94;61.88;98232.40;231994;201;137622;-52
2024/01/05 04:42:44;;;;;;;3.80;2.70;;;;;;;4.95;61.95;98229.31;232401;204;136602;-52
2024/01/05 04:47:47;;;;;;;3.60;2.80;;;;;;;4.88;61.88;98235.86;232419;204;152868;-53
2024/01/05 04:52:50;;;;;;;3.60;2.80;;;;;;;4.84;62.29;98243.67;232347;204;136128;-52
2024/01/05 04:57:53;;;;;;;4.80;3.10;;;;;;;4.82;62.13;98254.11;232351;204;137122;-52
2024/01/05 05:02:57;;;;;;;4.20;2.70;;;;;;;4.85;62.29;98250.48;232354;203;152098;-49
2024/01/05 05:08:00;;;;;;;3.90;2.80;;;;;;;4.85;62.12;98242.35;232389;203;137512;-49
2024/01/05 05:13:04;;;;;;;3.60;2.90;;;;;;;4.87;62.26;98255.94;232283;204;136820;-49
2024/01/05 05:18:07;;;;;;;3.70;3.10;;;;;;;4.88;62.04;98256.09;232268;204;151718;-51
2024/01/05 05:23:11;;;;;;;5.80;3.40;;;;;;;4.89;61.96;98270.80;232318;197;136979;-49
2024/01/05 05:28:14;;;;;;;7.40;4.70;;;;;;;4.85;61.73;98274.16;232258;201;138228;-47
2024/01/05 05:33:17;;;;;;;9.40;5.90;;;;;;;4.82;61.77;98288.55;232312;203;151348;-50
2024/01/05 05:38:20;;;;;;;9.00;5.80;;;;;;;4.87;61.87;98296.92;232181;203;140427;-50
2024/01/05 05:43:23;;;;;;;10.60;5.40;;;;;;;4.92;61.86;98314.42;232343;198;136723;-49
2024/01/05 05:48:26;;;;;;;8.30;5.40;;;;;;;4.94;61.68;98322.23;231684;200;151458;-50
2024/01/05 05:53:33;;;;;;;9.10;5.60;;;;;;;4.91;61.71;98324.66;232087;204;138267;-54
2024/01/05 05:58:36;;;;;;;7.30;4.90;;;;;;;4.89;61.99;98333.87;232101;204;137920;-55
2024/01/05 06:03:39;;;;;;;7.00;4.70;;;;;;;4.94;61.76;98347.02;232107;201;152357;-52
2024/01/05 06:08:42;;;;;;;7.50;5.20;;;;;;;4.94;61.73;98352.42;232184;201;137180;-52
2024/01/05 06:13:46;;;;;;;8.90;4.90;;;;;;;4.93;61.91;98351.08;232239;204;136904;-51
2024/01/05 06:18:49;;;;;;;11.20;8.10;;;;;;;4.90;61.93;98352.48;232165;200;151233;-53
2024/01/05 06:23:53;;;;;;;26.70;17.60;;;;;;;5.11;62.77;98344.02;232106;201;137210;-52
2024/01/05 06:28:57;;;;;;;53.80;34.00;;;;;;;5.12;62.10;98345.91;232029;202;136769;-52
2024/01/05 06:34:00;;;;;;;21.90;15.10;;;;;;;5.10;62.06;98342.70;231465;198;151917;-54
2024/01/05 06:39:05;;;;;;;9.50;5.60;;;;;;;5.01;62.07;98344.18;232205;204;159549;-52
2024/01/05 06:44:09;;;;;;;80.90;56.60;;;;;;;4.95;62.01;98340.65;232153;197;136804;-53
2024/01/05 06:49:12;;;;;;;13.30;8.20;;;;;;;4.93;62.42;98332.11;232300;197;151534;-52
2024/01/05 06:54:16;;;;;;;14.00;6.80;;;;;;;5.00;62.27;98334.25;232158;200;137390;-53
2024/01/05 06:59:20;;;;;;;10.80;5.90;;;;;;;5.01;61.82;98332.23;232012;198;136486;-48
2024/01/05 07:04:23;;;;;;;11.50;6.50;;;;;;;4.96;61.82;98328.23;232128;197;152748;-50
2024/01/05 07:09:27;;;;;;;11.10;7.10;;;;;;;4.94;62.45;98328.71;232078;202;139867;-47
2024/01/05 07:14:30;;;;;;;8.30;6.10;;;;;;;4.90;63.10;98330.87;231864;201;137081;-48
2024/01/05 07:19:33;;;;;;;12.60;7.80;;;;;;;4.89;63.64;98319.67;232254;201;151696;-54
2024/01/05 07:24:38;;;;;;;155.40;95.60;;;;;;;4.87;64.83;98315.19;232162;198;137215;-50
2024/01/05 07:29:41;;;;;;;14.40;8.90;;;;;;;4.89;65.10;98316.48;231706;199;138574;-49
2024/01/05 07:34:44;;;;;;;19.80;13.40;;;;;;;4.87;65.20;98319.09;232022;198;151309;-51
2024/01/05 07:39:47;;;;;;;10.60;6.20;;;;;;;4.89;65.77;98332.16;231483;201;138329;-49
2024/01/05 07:44:51;;;;;;;10.40;5.90;;;;;;;4.84;65.99;98341.87;231899;201;137098;-53
2024/01/05 07:49:54;;;;;;;9.80;6.40;;;;;;;4.82;66.42;98341.80;232252;201;151488;-49
2024/01/05 07:54:58;;;;;;;7.90;5.40;;;;;;;4.82;66.76;98336.69;232399;200;137124;-55
2024/01/05 08:00:01;;;;;;;9.50;6.60;;;;;;;4.82;66.51;98330.20;232148;204;136409;-53
2024/01/05 08:05:07;;;;;;;12.50;7.40;;;;;;;4.82;66.42;98325.81;231916;204;151203;-51
2024/01/05 08:10:11;;;;;;;12.30;7.90;;;;;;;4.83;66.30;98324.38;231906;202;137462;-53
2024/01/05 08:15:15;;;;;;;14.30;10.20;;;;;;;4.85;66.17;98334.48;232167;204;137645;-54
2024/01/05 08:20:18;;;;;;;12.40;8.70;;;;;;;4.86;66.63;98340.55;232322;198;152454;-54
2024/01/05 08:25:21;;;;;;;11.10;7.30;;;;;;;4.90;66.08;98342.26;232420;204;137427;-50
2024/01/05 08:30:26;;;;;;;12.10;8.00;;;;;;;4.89;66.26;98331.42;232286;204;137848;-50
2024/01/05 08:35:29;;;;;;;10.60;7.70;;;;;;;4.90;66.15;98336.67;232240;204;152315;-50
2024/01/05 08:40:33;;;;;;;10.60;6.90;;;;;;;4.91;65.97;98345.23;232072;204;136944;-51
2024/01/05 08:45:36;;;;;;;12.40;7.40;;;;;;;4.90;65.77;98355.79;232202;204;136872;-50
2024/01/05 08:50:40;;;;;;;11.50;7.80;;;;;;;4.90;65.92;98353.36;232158;204;152456;-50
2024/01/05 08:55:44;;;;;;;9.30;7.10;;;;;;;4.95;66.47;98360.30;232418;204;136428;-51
2024/01/05 09:00:47;;;;;;;11.10;7.30;;;;;;;5.02;66.57;98368.05;232182;204;138883;-48
2024/01/05 09:05:50;;;;;;;11.90;7.30;;;;;;;5.18;66.96;98363.37;232300;197;151952;-49
2024/01/05 09:10:54;;;;;;;12.10;7.80;;;;;;;5.35;66.08;98363.36;232153;204;140566;-51
2024/01/05 09:15:57;;;;;;;10.60;7.50;;;;;;;5.49;65.70;98358.76;231592;204;137576;-48
2024/01/05 09:21:02;;;;;;;423.20;278.30;;;;;;;5.65;65.58;98356.38;231670;197;152103;-47
2024/01/05 09:26:13;;;;;;;14.00;9.70;;;;;;;5.78;65.05;98355.98;232124;201;137028;-48
2024/01/05 09:31:17;;;;;;;14.40;9.00;;;;;;;5.78;64.53;98351.98;232192;204;137231;-50
2024/01/05 09:36:20;;;;;;;17.80;10.40;;;;;;;5.84;64.67;98343.55;232183;197;151448;-49
2024/01/05 09:41:23;;;;;;;16.10;12.00;;;;;;;5.83;64.45;98341.83;231584;204;138294;-48
2024/01/05 09:46:28;;;;;;;17.50;9.60;;;;;;;5.73;64.74;98349.24;231979;201;136855;-48
2024/01/05 09:51:31;;;;;;;17.00;9.60;;;;;;;5.74;64.39;98347.98;232158;204;151188;-50
2024/01/05 09:56:35;;;;;;;15.80;8.30;;;;;;;5.75;64.54;98342.80;232042;197;136918;-49
2024/01/05 10:01:41;;;;;;;15.70;8.00;;;;;;;5.74;64.33;98347.61;232266;204;137694;-49
2024/01/05 10:06:45;;;;;;;10.70;7.60;;;;;;;5.73;63.89;98349.05;231784;201;151309;-47
2024/01/05 10:11:48;;;;;;;11.90;7.10;;;;;;;5.71;64.27;98358.83;232099;204;136932;-47
2024/01/05 10:17:08;;;;;;;339.00;211.20;;;;;;;5.73;64.30;98360.14;231909;204;137485;-48
2024/01/05 10:22:13;;;;;;;24.70;13.10;;;;;;;5.84;64.22;98347.08;232132;201;151852;-49
2024/01/05 10:27:17;;;;;;;12.60;6.90;;;;;;;5.83;63.65;98346.41;231839;202;137675;-50
2024/01/05 10:32:21;;;;;;;9.80;6.20;;;;;;;5.83;63.84;98343.60;232184;202;137043;-51
2024/01/05 10:37:24;;;;;;;11.20;6.50;;;;;;;5.85;63.82;98346.31;232100;197;152761;-49
2024/01/05 10:42:28;;;;;;;13.30;7.50;;;;;;;5.87;63.86;98351.27;231295;204;136984;-48
2024/01/05 10:47:32;;;;;;;13.10;7.40;;;;;;;5.91;63.66;98348.61;232076;197;138708;-49
2024/01/05 10:52:36;;;;;;;12.30;7.30;;;;;;;5.93;63.34;98348.70;232286;204;151450;-49
2024/01/05 10:57:41;;;;;;;12.30;6.80;;;;;;;5.97;63.55;98338.11;232177;204;138361;-50
2024/01/05 11:02:49;;;;;;;12.90;8.10;;;;;;;6.06;63.77;98320.55;232044;201;138384;-52
2024/01/05 11:07:54;;;;;;;14.20;7.20;;;;;;;6.14;64.03;98314.10;232169;197;151856;-50
2024/01/05 11:13:08;;;;;;;11.20;7.30;;;;;;;6.19;63.85;98308.74;232214;204;136528;-49
2024/01/05 11:18:48;;;;;;;17.30;9.10;;;;;;;6.24;63.74;98310.71;232246;201;138564;-50
2024/01/05 11:23:55;;;;;;;12.70;7.20;;;;;;;6.36;63.43;98311.45;232131;204;151321;-50
2024/01/05 11:28:59;;;;;;;13.90;8.10;;;;;;;6.40;63.84;98304.70;232052;204;136674;-52
2024/01/05 11:34:02;;;;;;;10.80;7.40;;;;;;;6.46;63.96;98299.98;232130;198;138513;-48
2024/01/05 11:39:06;;;;;;;14.00;7.40;;;;;;;6.50;64.07;98298.50;231844;204;152678;-51
2024/01/05 11:44:31;;;;;;;13.20;7.50;;;;;;;6.53;64.29;98298.19;232140;204;137248;-47
2024/01/05 11:49:37;;;;;;;15.20;7.60;;;;;;;6.52;64.16;98293.65;232318;202;137737;-48
2024/01/05 11:54:41;;;;;;;13.40;7.80;;;;;;;6.47;64.23;98290.91;232034;201;151858;-52
2024/01/05 11:59:54;;;;;;;10.70;6.90;;;;;;;6.47;64.33;98286.71;232150;201;137895;-48
2024/01/05 12:04:57;;;;;;;11.40;7.20;;;;;;;6.51;64.79;98288.21;232209;201;136584;-48
2024/01/05 12:10:00;;;;;;;12.10;7.30;;;;;;;6.64;64.75;98291.73;232046;202;151829;-51
2024/01/05 12:15:09;;;;;;;12.00;6.70;;;;;;;6.74;64.50;98292.89;231951;201;137201;-49
2024/01/05 12:20:13;;;;;;;8.60;6.00;;;;;;;6.86;64.25;98285.83;231345;197;137437;-51
2024/01/05 12:25:17;;;;;;;12.50;6.90;;;;;;;6.89;63.96;98287.08;232206;201;151318;-52
2024/01/05 12:30:21;;;;;;;10.30;6.80;;;;;;;6.92;63.93;98277.21;232027;198;137703;-51
2024/01/05 12:35:24;;;;;;;9.80;6.10;;;;;;;6.94;63.92;98264.89;232020;204;138709;-49
2024/01/05 12:40:28;;;;;;;10.00;5.90;;;;;;;6.94;63.85;98268.42;232181;201;152851;-50
2024/01/05 12:45:31;;;;;;;11.30;6.80;;;;;;;6.95;64.04;98263.81;232174;196;137664;-50
2024/01/05 12:50:34;;;;;;;12.30;7.00;;;;;;;6.90;63.91;98258.61;232265;201;137326;-49
2024/01/05 12:55:38;;;;;;;11.40;7.30;;;;;;;6.83;63.95;98261.51;232243;198;151826;-50
2024/01/05 13:00:43;;;;;;;12.00;7.70;;;;;;;6.74;63.85;98262.40;232173;202;137121;-49
2024/01/05 13:05:46;;;;;;;11.10;7.40;;;;;;;6.65;64.17;98265.39;232031;201;136828;-51
2024/01/05 13:10:50;;;;;;;11.00;7.60;;;;;;;6.57;64.37;98256.17;232142;198;151417;-51
2024/01/05 13:15:53;;;;;;;15.00;8.60;;;;;;;6.53;64.39;98252.00;232126;196;136839;-50
2024/01/05 13:20:56;;;;;;;12.50;7.80;;;;;;;6.50;64.61;98246.36;231987;198;137474;-49
2024/01/05 13:26:00;;;;;;;11.60;7.90;;;;;;;6.43;64.82;98241.99;232127;204;152148;-51
2024/01/05 13:31:04;;;;;;;11.60;7.90;;;;;;;6.34;64.93;98240.42;232302;204;137116;-51
2024/01/05 13:36:08;;;;;;;10.80;7.80;;;;;;;6.29;65.39;98232.43;232064;204;136507;-50
2024/01/05 13:41:11;;;;;;;13.10;8.70;;;;;;;6.27;65.50;98227.40;232063;204;152053;-54
2024/01/05 13:46:14;;;;;;;10.50;8.40;;;;;;;6.26;65.44;98230.11;232126;196;136563;-50
2024/01/05 13:51:18;;;;;;;13.00;8.80;;;;;;;6.24;65.55;98234.66;232218;204;136335;-49
2024/01/05 13:56:21;;;;;;;12.30;8.30;;;;;;;6.21;65.59;98237.98;232056;201;151380;-50
2024/01/05 14:01:24;;;;;;;13.60;8.40;;;;;;;6.19;65.74;98229.11;232390;201;137581;-49
2024/01/05 14:06:28;;;;;;;14.50;10.20;;;;;;;6.20;65.81;98220.05;232091;200;138491;-48
2024/01/05 14:11:31;;;;;;;12.70;9.40;;;;;;;6.21;65.85;98219.66;231857;203;152085;-51
2024/01/05 14:16:34;;;;;;;12.80;8.50;;;;;;;6.22;65.77;98210.09;232014;204;140317;-48
2024/01/05 14:21:38;;;;;;;12.30;8.90;;;;;;;6.21;65.79;98212.13;232113;198;136681;-50
2024/01/05 14:26:46;;;;;;;12.60;8.70;;;;;;;6.17;65.86;98208.96;232080;201;151856;-49
2024/01/05 14:31:49;;;;;;;14.30;9.60;;;;;;;6.12;65.87;98210.70;232073;204;136612;-50
2024/01/05 14:36:52;;;;;;;14.60;9.30;;;;;;;6.06;66.03;98212.42;232161;204;136564;-47
2024/01/05 14:41:56;;;;;;;15.00;9.40;;;;;;;6.02;66.34;98210.20;231523;197;153103;-48
2024/01/05 14:46:59;;;;;;;13.60;8.70;;;;;;;5.97;66.51;98204.82;232012;204;137720;-47
2024/01/05 14:52:03;;;;;;;12.60;9.10;;;;;;;5.91;66.63;98207.45;232104;201;137222;-50
2024/01/05 14:57:06;;;;;;;14.70;9.80;;;;;;;5.85;67.04;98195.45;232119;198;152162;-49
2024/01/05 15:02:10;;;;;;;15.60;10.10;;;;;;;5.84;67.04;98204.86;232055;198;136576;-52
2024/01/05 15:07:13;;;;;;;17.10;10.70;;;;;;;5.81;67.15;98200.29;232218;202;137185;-53
2024/01/05 15:12:16;;;;;;;16.90;10.30;;;;;;;5.77;67.09;98207.36;232108;201;151542;-52
2024/01/05 15:17:19;;;;;;;14.70;9.80;;;;;;;5.73;67.28;98203.86;232012;204;137535;-52
2024/01/05 15:22:22;;;;;;;14.60;8.90;;;;;;;5.72;67.20;98199.89;231888;197;137563;-52
2024/01/05 15:27:25;;;;;;;15.50;9.60;;;;;;;5.70;67.05;98187.65;231703;201;151417;-51
2024/01/05 15:32:29;;;;;;;18.40;10.90;;;;;;;5.74;66.88;98184.61;232203;204;137663;-53
2024/01/05 15:37:33;;;;;;;20.80;11.50;;;;;;;5.72;66.58;98196.70;232285;204;137961;-50
2024/01/05 15:42:36;;;;;;;20.70;12.70;;;;;;;5.65;66.53;98199.02;232030;201;151382;-53
2024/01/05 15:47:40;;;;;;;20.90;12.40;;;;;;;5.56;66.46;98195.66;232104;198;136701;-51
2024/01/05 15:52:43;;;;;;;20.80;13.20;;;;;;;5.47;66.20;98187.86;231692;197;137052;-51
2024/01/05 15:57:46;;;;;;;25.30;14.30;;;;;;;5.37;66.16;98187.17;232193;204;151989;-53
2024/01/05 16:02:50;;;;;;;21.00;13.50;;;;;;;5.26;66.34;98191.35;232089;201;139999;-53
2024/01/05 16:07:53;;;;;;;23.30;14.00;;;;;;;5.17;66.52;98190.08;232219;204;137537;-53
2024/01/05 16:12:56;;;;;;;24.10;15.50;;;;;;;5.08;66.67;98185.80;232007;197;151286;-54
2024/01/05 16:17:59;;;;;;;282.70;182.30;;;;;;;4.98;66.65;98192.09;232197;198;137180;-55
2024/01/05 16:23:03;;;;;;;37.00;23.70;;;;;;;5.00;67.25;98193.25;231620;201;137975;-52
2024/01/05 16:28:06;;;;;;;24.90;14.60;;;;;;;4.99;66.84;98190.67;231584;197;151219;-51
2024/01/05 16:33:09;;;;;;;22.00;15.20;;;;;;;4.89;66.87;98184.52;232072;204;137511;-53
2024/01/05 16:38:13;;;;;;;22.90;15.00;;;;;;;4.84;67.00;98183.73;232047;201;138210;-51
2024/01/05 16:43:16;;;;;;;24.60;15.10;;;;;;;4.77;67.09;98188.51;232323;197;152282;-60
2024/01/05 16:48:19;;;;;;;23.50;15.00;;;;;;;4.72;67.21;98186.11;232018;196;139589;-54
2024/01/05 16:53:27;;;;;;;24.60;14.80;;;;;;;4.69;67.18;98189.42;231985;201;137788;-54
2024/01/05 16:58:30;;;;;;;23.80;15.60;;;;;;;4.73;67.28;98187.09;231939;204;151519;-50
2024/01/05 17:03:33;;;;;;;24.50;15.10;;;;;;;4.79;67.10;98193.30;231853;204;138037;-55
2024/01/05 17:08:37;;;;;;;23.70;15.30;;;;;;;4.81;66.96;98192.51;232083;204;137445;-53
2024/01/05 17:13:41;;;;;;;21.30;14.40;;;;;;;4.80;66.86;98189.73;232101;201;151921;-54
2024/01/05 17:18:44;;;;;;;24.80;15.50;;;;;;;4.76;66.89;98185.55;232206;197;136824;-55
2024/01/05 17:23:50;;;;;;;23.80;15.90;;;;;;;4.72;66.78;98184.51;232233;201;137463;-53
2024/01/05 17:28:54;;;;;;;22.20;14.80;;;;;;;4.66;66.84;98179.03;232145;204;151968;-53
2024/01/05 17:33:57;;;;;;;25.60;15.40;;;;;;;4.61;66.94;98181.60;232171;202;137087;-55
2024/01/05 17:39:00;;;;;;;23.90;16.40;;;;;;;4.56;66.90;98178.51;232123;198;250640;-51
2024/01/05 17:44:04;;;;;;;22.90;15.40;;;;;;;4.52;67.04;98182.39;231629;204;151249;-48
2024/01/05 17:49:08;;;;;;;28.00;16.50;;;;;;;4.45;66.98;98179.42;232088;204;136927;-51
2024/01/05 17:54:12;;;;;;;29.40;16.40;;;;;;;4.36;66.98;98182.31;232127;204;137030;-54
2024/01/05 17:59:19;;;;;;;25.40;16.10;;;;;;;4.30;67.21;98181.42;232177;204;151348;-53
2024/01/05 18:04:23;;;;;;;26.50;16.90;;;;;;;4.26;67.37;98183.20;231684;204;137304;-52
2024/01/05 18:09:31;;;;;;;28.90;17.10;;;;;;;4.25;67.44;98185.36;232039;198;137567;-50
2024/01/05 18:14:36;;;;;;;24.30;15.90;;;;;;;4.30;68.28;98184.56;231763;201;152142;-51
2024/01/05 18:19:41;;;;;;;25.50;15.50;;;;;;;4.46;67.56;98189.89;232171;198;138101;-52
2024/01/05 18:24:44;;;;;;;27.80;17.00;;;;;;;4.42;67.27;98191.35;232074;197;138287;-53
2024/01/05 18:29:48;;;;;;;37.90;24.30;;;;;;;4.46;68.38;98194.80;232004;197;152739;-52
2024/01/05 18:34:51;;;;;;;26.10;17.50;;;;;;;4.80;67.40;98193.59;231837;204;140176;-51
2024/01/05 18:39:55;;;;;;;30.80;18.50;;;;;;;4.73;66.72;98190.45;232105;204;138967;-51
2024/01/05 18:44:58;;;;;;;200.20;130.80;;;;;;;4.63;66.80;98187.28;232138;204;151258;-52
2024/01/05 18:50:03;;;;;;;40.90;23.80;;;;;;;4.63;67.43;98181.47;231924;204;138931;-53
2024/01/05 18:55:07;;;;;;;35.70;20.70;;;;;;;4.61;66.94;98178.96;232139;204;137088;-50
2024/01/05 19:00:12;;;;;;;31.20;19.90;;;;;;;4.55;67.09;98183.11;232022;204;151788;-52
2024/01/05 19:05:16;;;;;;;35.90;20.20;;;;;;;4.49;67.12;98175.02;232012;204;138357;-54
2024/01/05 19:10:21;;;;;;;34.50;20.80;;;;;;;4.42;67.23;98177.48;232091;204;137358;-49
2024/01/05 19:15:24;;;;;;;33.70;21.00;;;;;;;4.37;67.34;98176.68;232053;197;151366;-53
2024/01/05 19:20:27;;;;;;;31.60;19.90;;;;;;;4.33;67.49;98169.48;232026;201;137406;-52
2024/01/05 19:25:33;;;;;;;29.50;19.30;;;;;;;4.29;67.67;98162.68;232187;200;138387;-52
2024/01/05 19:30:37;;;;;;;190.80;125.40;;;;;;;4.45;69.07;98159.58;231911;197;152096;-51
2024/01/05 19:35:40;;;;;;;32.30;20.40;;;;;;;4.69;68.26;98156.06;232039;204;138992;-51
2024/01/05 19:40:43;;;;;;;33.10;21.60;;;;;;;4.65;67.17;98149.04;232069;204;138146;-48
2024/01/05 19:45:47;;;;;;;33.80;21.20;;;;;;;4.61;67.00;98147.16;232124;202;151168;-55
2024/01/05 19:50:50;;;;;;;34.40;21.20;;;;;;;4.58;67.03;98142.75;232184;202;137574;-53
2024/01/05 19:55:54;;;;;;;35.00;21.30;;;;;;;4.55;67.08;98137.83;232218;198;137015;-52
2024/01/05 20:00:58;;;;;;;33.40;20.80;;;;;;;4.52;67.19;98140.61;231935;198;152727;-56
2024/01/05 20:06:03;;;;;;;38.80;22.30;;;;;;;4.40;67.32;98156.14;231814;204;137365;-57
2024/01/05 20:11:10;;;;;;;36.80;21.90;;;;;;;4.37;67.44;98158.94;232079;198;138559;-56
2024/01/05 20:16:13;;;;;;;35.70;21.70;;;;;;;4.31;67.57;98171.88;231969;205;151570;-56
2024/01/05 20:21:17;;;;;;;33.90;21.90;;;;;;;4.30;67.94;98175.48;231946;204;137321;-58
2024/01/05 20:26:21;;;;;;;29.90;20.80;;;;;;;4.31;68.15;98164.34;232055;204;137760;-50
2024/01/05 20:31:24;;;;;;;131.90;84.40;;;;;;;4.41;69.39;98157.68;232145;201;151935;-53
2024/01/05 20:36:28;;;;;;;41.90;27.00;;;;;;;4.55;68.46;98159.73;232035;204;248798;-54
2024/01/05 20:41:31;;;;;;;37.10;22.50;;;;;;;4.71;68.52;98151.70;232005;197;137484;-57
2024/01/05 20:46:38;;;;;;;32.80;20.90;;;;;;;4.64;67.56;98144.90;232136;202;152578;-56
2024/01/05 20:51:41;;;;;;;35.50;21.60;;;;;;;4.61;67.51;98150.48;232045;204;139315;-57
2024/01/05 20:56:44;;;;;;;39.70;22.20;;;;;;;4.60;67.56;98171.27;231999;201;139802;-57
2024/01/05 21:01:47;;;;;;;34.90;22.90;;;;;;;4.60;67.41;98170.01;232257;201;152692;-56
2024/01/05 21:06:51;;;;;;;31.20;21.20;;;;;;;4.58;67.40;98157.50;231897;197;137782;-56
2024/01/05 21:11:55;;;;;;;38.30;22.20;;;;;;;4.52;67.36;98147.98;232013;197;136967;-54
2024/01/05 21:16:58;;;;;;;37.20;22.90;;;;;;;4.46;67.62;98141.59;231740;201;151415;-57
2024/01/05 21:22:01;;;;;;;35.90;23.50;;;;;;;4.42;67.61;98139.36;231725;197;140030;-56
2024/01/05 21:27:05;;;;;;;38.40;22.90;;;;;;;4.39;67.64;98149.36;232305;204;137935;-55
2024/01/05 21:32:08;;;;;;;38.60;24.10;;;;;;;4.33;67.64;98151.95;232196;204;151616;-56
2024/01/05 21:37:14;;;;;;;38.00;23.20;;;;;;;4.29;67.78;98142.86;232238;198;137939;-55
2024/01/05 21:42:18;;;;;;;37.80;23.90;;;;;;;4.24;67.78;98137.13;232267;202;140497;-54
2024/01/05 21:47:21;;;;;;;40.30;23.70;;;;;;;4.19;68.05;98121.73;232243;204;151898;-53
2024/01/05 21:52:24;;;;;;;39.30;23.60;;;;;;;4.15;68.26;98107.77;232086;204;137043;-55
2024/01/05 21:57:30;;;;;;;34.20;22.30;;;;;;;4.14;68.39;98096.75;232212;204;139079;-55
2024/01/05 22:02:33;;;;;;;37.40;22.60;;;;;;;4.10;68.45;98103.95;232313;204;151860;-55
2024/01/05 22:07:37;;;;;;;39.10;23.30;;;;;;;4.10;68.48;98116.42;232215;204;137402;-57
2024/01/05 22:12:40;;;;;;;39.50;24.00;;;;;;;4.14;68.54;98128.33;232232;201;138146;-55
2024/01/05 22:17:43;;;;;;;39.80;25.40;;;;;;;4.17;68.53;98128.17;232128;201;152196;-55
2024/01/05 22:22:47;;;;;;;40.70;25.80;;;;;;;4.25;68.53;98126.72;232076;197;138591;-56
2024/01/05 22:27:50;;;;;;;40.50;24.40;;;;;;;4.29;68.36;98129.35;232218;201;138134;-56
2024/01/05 22:32:53;;;;;;;39.10;23.90;;;;;;;4.28;68.32;98124.46;232218;204;152117;-58
2024/01/05 22:37:56;;;;;;;37.80;24.30;;;;;;;4.22;68.31;98117.73;232189;204;138114;-57
2024/01/05 22:43:00;;;;;;;41.70;24.90;;;;;;;4.14;68.49;98109.52;231996;198;136970;-56
2024/01/05 22:48:03;;;;;;;39.30;25.60;;;;;;;4.10;68.65;98102.05;232026;197;151421;-56
2024/01/05 22:53:07;;;;;;;43.10;26.20;;;;;;;4.08;68.85;98104.09;232154;204;139969;-55
2024/01/05 22:58:10;;;;;;;40.60;26.30;;;;;;;4.03;69.16;98103.57;232052;204;137983;-56
2024/01/05 23:03:14;;;;;;;48.00;28.50;;;;;;;4.02;69.24;98101.91;232180;201;151309;-55
2024/01/05 23:08:17;;;;;;;43.50;27.40;;;;;;;4.04;69.26;98109.70;232120;204;139187;-51
2024/01/05 23:13:24;;;;;;;44.10;25.40;;;;;;;4.03;69.33;98112.38;232289;201;137507;-56
2024/01/05 23:18:28;;;;;;;46.00;25.80;;;;;;;4.01;69.47;98110.36;232130;198;152532;-54
2024/01/05 23:23:31;;;;;;;45.70;26.00;;;;;;;4.02;69.54;98112.61;232018;199;138725;-56
2024/01/05 23:28:34;;;;;;;47.80;28.30;;;;;;;4.12;69.45;98109.65;232071;202;137271;-54
2024/01/05 23:33:37;;;;;;;44.50;27.20;;;;;;;4.19;69.37;98111.23;232069;204;151208;-56